sensor_id;sensor_type;location;lat;lon;timestamp;P1;durP1;ratioP1;P2;durP2;ratioP2
7495;SDS011;3789;47.064;15.482;2022-10-16T00:02:33;99.20;;;48.93;;
7495;SDS011;3789;47.064;15.482;2022-10-16T00:08:44;94.63;;;48.33;;
7495;SDS011;3789;47.064;15.482;2022-10-16T00:11:14;85.73;;;44.10;;
7495;SDS011;3789;47.064;15.482;2022-10-16T00:13:51;75.57;;;41.70;;
7495;SDS011;3789;47.064;15.482;2022-10-16T00:16:23;92.47;;;46.00;;
7495;SDS011;3789;47.064;15.482;2022-10-16T00:18:59;91.13;;;47.50;;
7495;SDS011;3789;47.064;15.482;2022-10-16T00:21:36;102.20;;;52.23;;
7495;SDS011;3789;47.064;15.482;2022-10-16T00:24:07;79.60;;;40.83;;
7495;SDS011;3789;47.064;15.482;2022-10-16T00:26:37;81.30;;;42.83;;
7495;SDS011;3789;47.064;15.482;2022-10-16T00:29:07;82.20;;;42.07;;
7495;SDS011;3789;47.064;15.482;2022-10-16T00:31:37;97.53;;;49.00;;
7495;SDS011;3789;47.064;15.482;2022-10-16T00:34:06;98.23;;;48.03;;
7495;SDS011;3789;47.064;15.482;2022-10-16T00:36:37;97.17;;;48.80;;
7495;SDS011;3789;47.064;15.482;2022-10-16T00:39:05;86.10;;;45.93;;
7495;SDS011;3789;47.064;15.482;2022-10-16T00:41:43;89.50;;;46.30;;
7495;SDS011;3789;47.064;15.482;2022-10-16T00:47:24;63.20;;;36.87;;
7495;SDS011;3789;47.064;15.482;2022-10-16T00:50:18;68.57;;;39.47;;
7495;SDS011;3789;47.064;15.482;2022-10-16T00:52:58;87.63;;;45.07;;
7495;SDS011;3789;47.064;15.482;2022-10-16T00:55:28;76.97;;;41.57;;
7495;SDS011;3789;47.064;15.482;2022-10-16T00:58:05;63.23;;;37.43;;
7495;SDS011;3789;47.064;15.482;2022-10-16T01:00:35;78.97;;;39.10;;
7495;SDS011;3789;47.064;15.482;2022-10-16T01:03:30;77.97;;;40.97;;
7495;SDS011;3789;47.064;15.482;2022-10-16T01:09:12;74.07;;;41.80;;
7495;SDS011;3789;47.064;15.482;2022-10-16T01:18:45;60.87;;;33.60;;
7495;SDS011;3789;47.064;15.482;2022-10-16T01:21:29;66.90;;;36.03;;
7495;SDS011;3789;47.064;15.482;2022-10-16T01:24:17;61.67;;;33.77;;
7495;SDS011;3789;47.064;15.482;2022-10-16T01:33:10;80.20;;;41.87;;
7495;SDS011;3789;47.064;15.482;2022-10-16T01:35:44;75.03;;;38.67;;
7495;SDS011;3789;47.064;15.482;2022-10-16T01:38:23;78.97;;;40.67;;
7495;SDS011;3789;47.064;15.482;2022-10-16T01:41:25;62.33;;;34.17;;
7495;SDS011;3789;47.064;15.482;2022-10-16T01:44:12;71.53;;;37.00;;
7495;SDS011;3789;47.064;15.482;2022-10-16T01:46:46;74.23;;;40.50;;
7495;SDS011;3789;47.064;15.482;2022-10-16T01:49:17;51.87;;;31.60;;
7495;SDS011;3789;47.064;15.482;2022-10-16T01:51:47;76.60;;;39.03;;
7495;SDS011;3789;47.064;15.482;2022-10-16T01:54:18;76.30;;;41.00;;
7495;SDS011;3789;47.064;15.482;2022-10-16T01:56:48;72.60;;;38.93;;
7495;SDS011;3789;47.064;15.482;2022-10-16T01:59:18;74.30;;;39.73;;
7495;SDS011;3789;47.064;15.482;2022-10-16T02:01:48;70.93;;;38.43;;
7495;SDS011;3789;47.064;15.482;2022-10-16T02:06:54;53.10;;;31.93;;
7495;SDS011;3789;47.064;15.482;2022-10-16T02:09:21;54.90;;;35.70;;
7495;SDS011;3789;47.064;15.482;2022-10-16T02:11:49;70.10;;;36.67;;
7495;SDS011;3789;47.064;15.482;2022-10-16T02:14:19;56.10;;;35.77;;
7495;SDS011;3789;47.064;15.482;2022-10-16T02:16:46;53.63;;;35.53;;
7495;SDS011;3789;47.064;15.482;2022-10-16T02:19:13;50.00;;;31.60;;
7495;SDS011;3789;47.064;15.482;2022-10-16T02:21:43;51.13;;;32.57;;
7495;SDS011;3789;47.064;15.482;2022-10-16T02:30:08;45.53;;;32.23;;
7495;SDS011;3789;47.064;15.482;2022-10-16T02:32:40;49.43;;;31.87;;
7495;SDS011;3789;47.064;15.482;2022-10-16T02:35:11;48.77;;;33.97;;
7495;SDS011;3789;47.064;15.482;2022-10-16T02:37:39;48.60;;;34.23;;
7495;SDS011;3789;47.064;15.482;2022-10-16T02:40:08;49.90;;;36.20;;
7495;SDS011;3789;47.064;15.482;2022-10-16T02:42:37;56.63;;;36.53;;
7495;SDS011;3789;47.064;15.482;2022-10-16T02:45:06;49.50;;;33.90;;
7495;SDS011;3789;47.064;15.482;2022-10-16T02:47:35;49.77;;;34.97;;
7495;SDS011;3789;47.064;15.482;2022-10-16T02:50:02;45.13;;;33.33;;
7495;SDS011;3789;47.064;15.482;2022-10-16T02:52:30;46.10;;;31.73;;
7495;SDS011;3789;47.064;15.482;2022-10-16T02:54:57;46.77;;;32.03;;
7495;SDS011;3789;47.064;15.482;2022-10-16T02:57:24;40.70;;;30.50;;
7495;SDS011;3789;47.064;15.482;2022-10-16T02:59:52;39.77;;;27.93;;
7495;SDS011;3789;47.064;15.482;2022-10-16T03:02:20;40.23;;;27.00;;
7495;SDS011;3789;47.064;15.482;2022-10-16T03:04:47;39.50;;;28.43;;
7495;SDS011;3789;47.064;15.482;2022-10-16T03:07:14;54.43;;;34.83;;
7495;SDS011;3789;47.064;15.482;2022-10-16T03:09:41;67.03;;;31.17;;
7495;SDS011;3789;47.064;15.482;2022-10-16T03:12:08;81.30;;;34.20;;
7495;SDS011;3789;47.064;15.482;2022-10-16T03:14:38;63.17;;;36.13;;
7495;SDS011;3789;47.064;15.482;2022-10-16T03:17:09;67.23;;;35.63;;
7495;SDS011;3789;47.064;15.482;2022-10-16T03:19:36;64.53;;;40.03;;
7495;SDS011;3789;47.064;15.482;2022-10-16T03:22:03;65.27;;;39.70;;
7495;SDS011;3789;47.064;15.482;2022-10-16T03:24:30;169.00;;;40.33;;
7495;SDS011;3789;47.064;15.482;2022-10-16T03:26:57;104.10;;;34.60;;
7495;SDS011;3789;47.064;15.482;2022-10-16T03:29:24;63.97;;;34.10;;
7495;SDS011;3789;47.064;15.482;2022-10-16T03:31:52;60.57;;;35.80;;
7495;SDS011;3789;47.064;15.482;2022-10-16T03:34:19;58.70;;;35.70;;
7495;SDS011;3789;47.064;15.482;2022-10-16T03:36:46;67.30;;;36.13;;
7495;SDS011;3789;47.064;15.482;2022-10-16T03:39:13;54.83;;;32.33;;
7495;SDS011;3789;47.064;15.482;2022-10-16T03:41:40;61.40;;;36.83;;
7495;SDS011;3789;47.064;15.482;2022-10-16T03:44:07;77.20;;;43.53;;
7495;SDS011;3789;47.064;15.482;2022-10-16T03:46:34;66.37;;;39.43;;
7495;SDS011;3789;47.064;15.482;2022-10-16T03:49:01;69.40;;;40.57;;
7495;SDS011;3789;47.064;15.482;2022-10-16T03:51:34;62.93;;;37.13;;
7495;SDS011;3789;47.064;15.482;2022-10-16T03:54:01;61.13;;;34.53;;
7495;SDS011;3789;47.064;15.482;2022-10-16T03:56:28;65.37;;;37.67;;
7495;SDS011;3789;47.064;15.482;2022-10-16T03:58:55;59.10;;;34.37;;
7495;SDS011;3789;47.064;15.482;2022-10-16T04:01:22;81.10;;;42.80;;
7495;SDS011;3789;47.064;15.482;2022-10-16T04:03:49;65.07;;;35.90;;
7495;SDS011;3789;47.064;15.482;2022-10-16T04:06:16;64.13;;;37.67;;
7495;SDS011;3789;47.064;15.482;2022-10-16T04:08:44;79.63;;;43.07;;
7495;SDS011;3789;47.064;15.482;2022-10-16T04:11:11;72.57;;;40.70;;
7495;SDS011;3789;47.064;15.482;2022-10-16T04:13:38;55.87;;;34.17;;
7495;SDS011;3789;47.064;15.482;2022-10-16T04:16:05;60.80;;;34.17;;
7495;SDS011;3789;47.064;15.482;2022-10-16T04:18:32;61.83;;;36.30;;
7495;SDS011;3789;47.064;15.482;2022-10-16T04:21:03;61.27;;;34.37;;
7495;SDS011;3789;47.064;15.482;2022-10-16T04:23:31;66.83;;;37.90;;
7495;SDS011;3789;47.064;15.482;2022-10-16T04:25:59;67.33;;;36.07;;
7495;SDS011;3789;47.064;15.482;2022-10-16T04:28:27;64.60;;;34.63;;
7495;SDS011;3789;47.064;15.482;2022-10-16T04:30:54;73.60;;;40.47;;
7495;SDS011;3789;47.064;15.482;2022-10-16T04:33:22;59.70;;;35.13;;
7495;SDS011;3789;47.064;15.482;2022-10-16T04:35:55;57.93;;;33.63;;
7495;SDS011;3789;47.064;15.482;2022-10-16T04:38:23;64.53;;;37.00;;
7495;SDS011;3789;47.064;15.482;2022-10-16T04:40:51;61.23;;;35.30;;
7495;SDS011;3789;47.064;15.482;2022-10-16T04:43:18;64.67;;;36.67;;
7495;SDS011;3789;47.064;15.482;2022-10-16T04:45:46;63.30;;;37.50;;
7495;SDS011;3789;47.064;15.482;2022-10-16T04:48:14;60.63;;;37.87;;
7495;SDS011;3789;47.064;15.482;2022-10-16T04:50:41;59.57;;;34.53;;
7495;SDS011;3789;47.064;15.482;2022-10-16T04:53:08;53.53;;;34.90;;
7495;SDS011;3789;47.064;15.482;2022-10-16T04:55:35;51.27;;;33.53;;
7495;SDS011;3789;47.064;15.482;2022-10-16T04:58:03;49.43;;;33.77;;
7495;SDS011;3789;47.064;15.482;2022-10-16T05:00:31;46.93;;;32.60;;
7495;SDS011;3789;47.064;15.482;2022-10-16T05:02:58;45.33;;;32.13;;
7495;SDS011;3789;47.064;15.482;2022-10-16T05:05:27;47.97;;;31.43;;
7495;SDS011;3789;47.064;15.482;2022-10-16T05:07:54;43.57;;;28.93;;
7495;SDS011;3789;47.064;15.482;2022-10-16T05:10:21;41.13;;;29.13;;
7495;SDS011;3789;47.064;15.482;2022-10-16T05:12:48;45.77;;;31.37;;
7495;SDS011;3789;47.064;15.482;2022-10-16T05:15:18;43.13;;;30.27;;
7495;SDS011;3789;47.064;15.482;2022-10-16T05:17:45;38.83;;;29.57;;
7495;SDS011;3789;47.064;15.482;2022-10-16T05:20:12;37.53;;;29.50;;
7495;SDS011;3789;47.064;15.482;2022-10-16T05:22:39;34.30;;;27.27;;
7495;SDS011;3789;47.064;15.482;2022-10-16T05:25:06;34.67;;;26.43;;
7495;SDS011;3789;47.064;15.482;2022-10-16T05:27:33;33.23;;;24.17;;
7495;SDS011;3789;47.064;15.482;2022-10-16T05:30:00;38.10;;;26.03;;
7495;SDS011;3789;47.064;15.482;2022-10-16T05:32:27;36.63;;;26.90;;
7495;SDS011;3789;47.064;15.482;2022-10-16T05:34:55;35.67;;;25.53;;
7495;SDS011;3789;47.064;15.482;2022-10-16T05:37:22;36.40;;;27.00;;
7495;SDS011;3789;47.064;15.482;2022-10-16T05:39:50;33.43;;;25.40;;
7495;SDS011;3789;47.064;15.482;2022-10-16T05:42:17;34.57;;;26.30;;
7495;SDS011;3789;47.064;15.482;2022-10-16T05:44:44;31.47;;;25.07;;
7495;SDS011;3789;47.064;15.482;2022-10-16T05:47:14;32.27;;;26.40;;
7495;SDS011;3789;47.064;15.482;2022-10-16T05:49:41;31.60;;;25.20;;
7495;SDS011;3789;47.064;15.482;2022-10-16T05:52:08;31.77;;;25.20;;
7495;SDS011;3789;47.064;15.482;2022-10-16T05:54:35;31.60;;;24.27;;
7495;SDS011;3789;47.064;15.482;2022-10-16T05:57:03;30.43;;;26.10;;
7495;SDS011;3789;47.064;15.482;2022-10-16T05:59:32;29.63;;;25.27;;
7495;SDS011;3789;47.064;15.482;2022-10-16T06:01:59;28.80;;;24.60;;
7495;SDS011;3789;47.064;15.482;2022-10-16T06:04:26;26.70;;;23.17;;
7495;SDS011;3789;47.064;15.482;2022-10-16T06:06:53;29.47;;;24.03;;
7495;SDS011;3789;47.064;15.482;2022-10-16T06:09:20;27.67;;;24.27;;
7495;SDS011;3789;47.064;15.482;2022-10-16T06:11:47;26.33;;;22.70;;
7495;SDS011;3789;47.064;15.482;2022-10-16T06:14:14;29.73;;;23.63;;
7495;SDS011;3789;47.064;15.482;2022-10-16T06:16:41;27.13;;;23.30;;
7495;SDS011;3789;47.064;15.482;2022-10-16T06:19:09;28.73;;;24.07;;
7495;SDS011;3789;47.064;15.482;2022-10-16T06:21:36;29.17;;;24.57;;
7495;SDS011;3789;47.064;15.482;2022-10-16T06:24:03;35.83;;;25.97;;
7495;SDS011;3789;47.064;15.482;2022-10-16T06:26:31;114.73;;;26.67;;
7495;SDS011;3789;47.064;15.482;2022-10-16T06:28:58;28.40;;;24.13;;
7495;SDS011;3789;47.064;15.482;2022-10-16T06:31:27;86.60;;;22.90;;
7495;SDS011;3789;47.064;15.482;2022-10-16T06:33:57;40.67;;;26.87;;
7495;SDS011;3789;47.064;15.482;2022-10-16T06:36:24;63.80;;;29.07;;
7495;SDS011;3789;47.064;15.482;2022-10-16T06:38:52;53.53;;;28.43;;
7495;SDS011;3789;47.064;15.482;2022-10-16T06:41:21;27.80;;;23.10;;
7495;SDS011;3789;47.064;15.482;2022-10-16T06:43:49;36.17;;;28.30;;
7495;SDS011;3789;47.064;15.482;2022-10-16T06:46:18;30.77;;;25.40;;
7495;SDS011;3789;47.064;15.482;2022-10-16T06:48:47;29.50;;;22.80;;
7495;SDS011;3789;47.064;15.482;2022-10-16T06:51:18;32.47;;;25.70;;
7495;SDS011;3789;47.064;15.482;2022-10-16T06:53:50;35.40;;;28.33;;
7495;SDS011;3789;47.064;15.482;2022-10-16T06:56:29;32.97;;;25.77;;
7495;SDS011;3789;47.064;15.482;2022-10-16T06:58:58;35.37;;;26.17;;
7495;SDS011;3789;47.064;15.482;2022-10-16T07:01:25;34.17;;;26.37;;
7495;SDS011;3789;47.064;15.482;2022-10-16T07:03:53;30.23;;;23.80;;
7495;SDS011;3789;47.064;15.482;2022-10-16T07:06:22;29.17;;;24.70;;
7495;SDS011;3789;47.064;15.482;2022-10-16T07:08:50;27.17;;;23.23;;
7495;SDS011;3789;47.064;15.482;2022-10-16T07:11:20;25.17;;;21.13;;
7495;SDS011;3789;47.064;15.482;2022-10-16T07:13:48;26.80;;;23.67;;
7495;SDS011;3789;47.064;15.482;2022-10-16T07:16:25;25.08;;;22.42;;
7495;SDS011;3789;47.064;15.482;2022-10-16T07:18:54;24.65;;;21.98;;
7495;SDS011;3789;47.064;15.482;2022-10-16T07:21:27;24.77;;;21.95;;
7495;SDS011;3789;47.064;15.482;2022-10-16T07:24:03;22.30;;;19.80;;
7495;SDS011;3789;47.064;15.482;2022-10-16T07:26:37;20.42;;;17.30;;
7495;SDS011;3789;47.064;15.482;2022-10-16T07:29:18;22.98;;;18.35;;
7495;SDS011;3789;47.064;15.482;2022-10-16T07:31:48;19.77;;;17.48;;
7495;SDS011;3789;47.064;15.482;2022-10-16T07:34:16;20.40;;;17.63;;
7495;SDS011;3789;47.064;15.482;2022-10-16T07:36:47;21.30;;;19.10;;
7495;SDS011;3789;47.064;15.482;2022-10-16T07:39:15;22.08;;;18.65;;
7495;SDS011;3789;47.064;15.482;2022-10-16T07:41:43;16.00;;;14.50;;
7495;SDS011;3789;47.064;15.482;2022-10-16T07:44:10;19.23;;;15.65;;
7495;SDS011;3789;47.064;15.482;2022-10-16T07:46:37;19.58;;;17.55;;
7495;SDS011;3789;47.064;15.482;2022-10-16T07:49:04;19.30;;;17.20;;
7495;SDS011;3789;47.064;15.482;2022-10-16T07:51:31;19.05;;;17.02;;
7495;SDS011;3789;47.064;15.482;2022-10-16T07:53:59;20.23;;;18.17;;
7495;SDS011;3789;47.064;15.482;2022-10-16T07:56:26;19.88;;;17.10;;
7495;SDS011;3789;47.064;15.482;2022-10-16T07:58:54;18.10;;;16.35;;
7495;SDS011;3789;47.064;15.482;2022-10-16T08:01:27;18.45;;;16.58;;
7495;SDS011;3789;47.064;15.482;2022-10-16T08:03:57;15.25;;;13.80;;
7495;SDS011;3789;47.064;15.482;2022-10-16T08:06:26;20.55;;;18.33;;
7495;SDS011;3789;47.064;15.482;2022-10-16T08:08:57;15.15;;;13.68;;
7495;SDS011;3789;47.064;15.482;2022-10-16T08:11:29;19.38;;;17.45;;
7495;SDS011;3789;47.064;15.482;2022-10-16T08:13:59;19.70;;;17.65;;
7495;SDS011;3789;47.064;15.482;2022-10-16T08:16:30;19.65;;;17.75;;
7495;SDS011;3789;47.064;15.482;2022-10-16T08:18:59;20.05;;;17.92;;
7495;SDS011;3789;47.064;15.482;2022-10-16T08:21:29;19.35;;;17.58;;
7495;SDS011;3789;47.064;15.482;2022-10-16T08:23:57;19.65;;;17.85;;
7495;SDS011;3789;47.064;15.482;2022-10-16T08:26:30;19.92;;;18.02;;
7495;SDS011;3789;47.064;15.482;2022-10-16T08:28:58;21.13;;;19.15;;
7495;SDS011;3789;47.064;15.482;2022-10-16T08:31:27;20.70;;;18.70;;
7495;SDS011;3789;47.064;15.482;2022-10-16T08:33:56;21.70;;;19.60;;
7495;SDS011;3789;47.064;15.482;2022-10-16T08:36:36;20.50;;;18.50;;
7495;SDS011;3789;47.064;15.482;2022-10-16T08:39:06;20.52;;;18.48;;
7495;SDS011;3789;47.064;15.482;2022-10-16T08:44:37;20.75;;;18.65;;
7495;SDS011;3789;47.064;15.482;2022-10-16T08:50:36;21.48;;;19.35;;
7495;SDS011;3789;47.064;15.482;2022-10-16T08:53:19;20.77;;;18.67;;
7495;SDS011;3789;47.064;15.482;2022-10-16T08:55:53;20.40;;;18.50;;
7495;SDS011;3789;47.064;15.482;2022-10-16T08:58:22;19.70;;;17.70;;
7495;SDS011;3789;47.064;15.482;2022-10-16T09:01:04;18.48;;;16.63;;
7495;SDS011;3789;47.064;15.482;2022-10-16T09:10:01;18.80;;;16.85;;
7495;SDS011;3789;47.064;15.482;2022-10-16T09:13:17;22.73;;;18.40;;
7495;SDS011;3789;47.064;15.482;2022-10-16T09:16:19;21.13;;;16.67;;
7495;SDS011;3789;47.064;15.482;2022-10-16T09:22:16;21.43;;;17.50;;
7495;SDS011;3789;47.064;15.482;2022-10-16T09:24:47;33.30;;;26.13;;
7495;SDS011;3789;47.064;15.482;2022-10-16T09:27:17;31.90;;;24.23;;
7495;SDS011;3789;47.064;15.482;2022-10-16T09:29:47;27.20;;;22.27;;
7495;SDS011;3789;47.064;15.482;2022-10-16T09:32:19;21.67;;;19.17;;
7495;SDS011;3789;47.064;15.482;2022-10-16T09:34:56;27.77;;;21.45;;
7495;SDS011;3789;47.064;15.482;2022-10-16T09:37:31;19.25;;;16.73;;
7495;SDS011;3789;47.064;15.482;2022-10-16T09:40:03;22.88;;;20.17;;
7495;SDS011;3789;47.064;15.482;2022-10-16T09:42:36;25.05;;;20.45;;
7495;SDS011;3789;47.064;15.482;2022-10-16T09:45:19;24.55;;;21.05;;
7495;SDS011;3789;47.064;15.482;2022-10-16T09:47:53;21.98;;;19.60;;
7495;SDS011;3789;47.064;15.482;2022-10-16T09:50:25;22.15;;;19.75;;
7495;SDS011;3789;47.064;15.482;2022-10-16T09:53:14;23.80;;;19.38;;
7495;SDS011;3789;47.064;15.482;2022-10-16T09:55:50;17.23;;;15.63;;
7495;SDS011;3789;47.064;15.482;2022-10-16T09:58:22;23.83;;;20.70;;
7495;SDS011;3789;47.064;15.482;2022-10-16T10:00:54;17.42;;;15.65;;
7495;SDS011;3789;47.064;15.482;2022-10-16T10:03:32;21.67;;;19.45;;
7495;SDS011;3789;47.064;15.482;2022-10-16T10:06:23;19.60;;;17.45;;
7495;SDS011;3789;47.064;15.482;2022-10-16T10:09:21;20.10;;;16.88;;
7495;SDS011;3789;47.064;15.482;2022-10-16T10:11:57;21.63;;;19.40;;
7495;SDS011;3789;47.064;15.482;2022-10-16T10:18:15;20.65;;;18.50;;
7495;SDS011;3789;47.064;15.482;2022-10-16T10:21:00;16.80;;;14.25;;
7495;SDS011;3789;47.064;15.482;2022-10-16T10:23:32;19.23;;;17.27;;
7495;SDS011;3789;47.064;15.482;2022-10-16T10:26:19;18.90;;;16.98;;
7495;SDS011;3789;47.064;15.482;2022-10-16T10:29:13;17.35;;;15.55;;
7495;SDS011;3789;47.064;15.482;2022-10-16T10:59:25;18.77;;;15.05;;
7495;SDS011;3789;47.064;15.482;2022-10-16T11:02:21;19.08;;;17.08;;
7495;SDS011;3789;47.064;15.482;2022-10-16T11:08:48;14.73;;;13.23;;
7495;SDS011;3789;47.064;15.482;2022-10-16T11:11:05;15.40;;;13.90;;
7495;SDS011;3789;47.064;15.482;2022-10-16T11:14:03;17.55;;;15.68;;
7495;SDS011;3789;47.064;15.482;2022-10-16T11:20:18;14.85;;;12.18;;
7495;SDS011;3789;47.064;15.482;2022-10-16T11:23:13;15.50;;;13.90;;
7495;SDS011;3789;47.064;15.482;2022-10-16T11:25:46;16.58;;;14.82;;
7495;SDS011;3789;47.064;15.482;2022-10-16T11:28:35;16.77;;;15.07;;
7495;SDS011;3789;47.064;15.482;2022-10-16T11:34:15;12.65;;;11.38;;
7495;SDS011;3789;47.064;15.482;2022-10-16T11:37:13;16.58;;;14.45;;
7495;SDS011;3789;47.064;15.482;2022-10-16T11:39:52;12.82;;;11.52;;
7495;SDS011;3789;47.064;15.482;2022-10-16T11:42:32;15.10;;;13.52;;
7495;SDS011;3789;47.064;15.482;2022-10-16T11:49:18;15.35;;;13.57;;
7495;SDS011;3789;47.064;15.482;2022-10-16T11:57:20;14.18;;;12.77;;
7495;SDS011;3789;47.064;15.482;2022-10-16T12:00:09;15.13;;;13.52;;
7495;SDS011;3789;47.064;15.482;2022-10-16T12:08:59;14.73;;;13.25;;
7495;SDS011;3789;47.064;15.482;2022-10-16T12:16:56;15.77;;;12.63;;
7495;SDS011;3789;47.064;15.482;2022-10-16T12:19:39;13.73;;;12.25;;
7495;SDS011;3789;47.064;15.482;2022-10-16T12:22:15;13.45;;;12.13;;
7495;SDS011;3789;47.064;15.482;2022-10-16T12:24:56;14.88;;;13.15;;
7495;SDS011;3789;47.064;15.482;2022-10-16T12:27:34;16.13;;;12.98;;
7495;SDS011;3789;47.064;15.482;2022-10-16T12:30:05;16.20;;;13.38;;
7495;SDS011;3789;47.064;15.482;2022-10-16T12:32:55;19.45;;;15.75;;
7495;SDS011;3789;47.064;15.482;2022-10-16T12:35:42;19.42;;;16.10;;
7495;SDS011;3789;47.064;15.482;2022-10-16T12:38:36;15.20;;;13.02;;
7495;SDS011;3789;47.064;15.482;2022-10-16T12:41:31;20.55;;;15.52;;
7495;SDS011;3789;47.064;15.482;2022-10-16T12:44:02;18.02;;;14.15;;
7495;SDS011;3789;47.064;15.482;2022-10-16T12:46:35;18.38;;;14.75;;
7495;SDS011;3789;47.064;15.482;2022-10-16T12:49:21;15.95;;;13.00;;
7495;SDS011;3789;47.064;15.482;2022-10-16T12:52:23;19.58;;;14.88;;
7495;SDS011;3789;47.064;15.482;2022-10-16T12:55:17;14.10;;;11.70;;
7495;SDS011;3789;47.064;15.482;2022-10-16T13:00:58;13.93;;;12.45;;
7495;SDS011;3789;47.064;15.482;2022-10-16T13:04:01;12.50;;;11.15;;
7495;SDS011;3789;47.064;15.482;2022-10-16T13:10:31;12.23;;;11.02;;
7495;SDS011;3789;47.064;15.482;2022-10-16T13:13:53;14.75;;;13.25;;
7495;SDS011;3789;47.064;15.482;2022-10-16T13:17:13;14.45;;;12.95;;
7495;SDS011;3789;47.064;15.482;2022-10-16T13:22:45;15.38;;;12.30;;
7495;SDS011;3789;47.064;15.482;2022-10-16T13:25:45;14.23;;;12.55;;
7495;SDS011;3789;47.064;15.482;2022-10-16T13:28:33;16.38;;;14.35;;
7495;SDS011;3789;47.064;15.482;2022-10-16T13:31:22;15.48;;;13.82;;
7495;SDS011;3789;47.064;15.482;2022-10-16T13:33:57;14.10;;;12.68;;
7495;SDS011;3789;47.064;15.482;2022-10-16T13:36:53;16.15;;;14.40;;
7495;SDS011;3789;47.064;15.482;2022-10-16T13:39:28;15.68;;;14.07;;
7495;SDS011;3789;47.064;15.482;2022-10-16T13:42:07;15.05;;;13.55;;
7495;SDS011;3789;47.064;15.482;2022-10-16T13:44:51;13.38;;;11.98;;
7495;SDS011;3789;47.064;15.482;2022-10-16T13:47:26;15.98;;;13.88;;
7495;SDS011;3789;47.064;15.482;2022-10-16T13:50:01;16.10;;;14.40;;
7495;SDS011;3789;47.064;15.482;2022-10-16T13:52:36;15.05;;;13.50;;
7495;SDS011;3789;47.064;15.482;2022-10-16T13:55:15;13.25;;;11.85;;
7495;SDS011;3789;47.064;15.482;2022-10-16T13:57:45;16.45;;;14.13;;
7495;SDS011;3789;47.064;15.482;2022-10-16T14:00:20;15.75;;;13.25;;
7495;SDS011;3789;47.064;15.482;2022-10-16T14:03:31;13.98;;;12.02;;
7495;SDS011;3789;47.064;15.482;2022-10-16T14:06:06;14.98;;;13.38;;
7495;SDS011;3789;47.064;15.482;2022-10-16T14:08:47;15.43;;;13.82;;
7495;SDS011;3789;47.064;15.482;2022-10-16T14:11:22;12.88;;;11.63;;
7495;SDS011;3789;47.064;15.482;2022-10-16T14:14:01;16.42;;;14.75;;
7495;SDS011;3789;47.064;15.482;2022-10-16T14:16:51;14.27;;;12.77;;
7495;SDS011;3789;47.064;15.482;2022-10-16T14:19:21;17.85;;;15.95;;
7495;SDS011;3789;47.064;15.482;2022-10-16T14:21:58;15.35;;;13.25;;
7495;SDS011;3789;47.064;15.482;2022-10-16T14:24:33;17.30;;;15.07;;
7495;SDS011;3789;47.064;15.482;2022-10-16T14:30:18;17.00;;;13.95;;
7495;SDS011;3789;47.064;15.482;2022-10-16T14:33:01;19.85;;;15.32;;
7495;SDS011;3789;47.064;15.482;2022-10-16T14:35:59;14.05;;;12.65;;
7495;SDS011;3789;47.064;15.482;2022-10-16T14:38:31;15.32;;;13.80;;
7495;SDS011;3789;47.064;15.482;2022-10-16T14:41:09;15.38;;;13.85;;
7495;SDS011;3789;47.064;15.482;2022-10-16T14:43:39;19.02;;;15.35;;
7495;SDS011;3789;47.064;15.482;2022-10-16T14:46:19;18.08;;;13.10;;
7495;SDS011;3789;47.064;15.482;2022-10-16T14:48:59;19.17;;;16.23;;
7495;SDS011;3789;47.064;15.482;2022-10-16T14:51:33;18.25;;;15.25;;
7495;SDS011;3789;47.064;15.482;2022-10-16T14:54:00;21.77;;;19.05;;
7495;SDS011;3789;47.064;15.482;2022-10-16T14:56:51;20.42;;;17.23;;
7495;SDS011;3789;47.064;15.482;2022-10-16T14:59:39;15.85;;;14.20;;
7495;SDS011;3789;47.064;15.482;2022-10-16T15:02:16;15.93;;;14.23;;
7495;SDS011;3789;47.064;15.482;2022-10-16T15:04:49;15.13;;;13.63;;
7495;SDS011;3789;47.064;15.482;2022-10-16T15:07:35;15.18;;;13.60;;
7495;SDS011;3789;47.064;15.482;2022-10-16T15:10:13;17.05;;;15.32;;
7495;SDS011;3789;47.064;15.482;2022-10-16T15:12:43;15.52;;;13.75;;
7495;SDS011;3789;47.064;15.482;2022-10-16T15:18:06;22.77;;;20.35;;
7495;SDS011;3789;47.064;15.482;2022-10-16T15:20:42;24.02;;;20.05;;
7495;SDS011;3789;47.064;15.482;2022-10-16T15:23:20;16.30;;;14.63;;
7495;SDS011;3789;47.064;15.482;2022-10-16T15:25:53;21.25;;;17.70;;
7495;SDS011;3789;47.064;15.482;2022-10-16T15:28:23;17.65;;;14.85;;
7495;SDS011;3789;47.064;15.482;2022-10-16T15:30:53;21.38;;;16.73;;
7495;SDS011;3789;47.064;15.482;2022-10-16T15:33:25;19.58;;;16.10;;
7495;SDS011;3789;47.064;15.482;2022-10-16T15:36:05;23.55;;;21.00;;
7495;SDS011;3789;47.064;15.482;2022-10-16T15:38:58;17.08;;;15.38;;
7495;SDS011;3789;47.064;15.482;2022-10-16T15:41:29;16.05;;;14.27;;
7495;SDS011;3789;47.064;15.482;2022-10-16T15:43:57;21.65;;;16.25;;
7495;SDS011;3789;47.064;15.482;2022-10-16T15:46:26;17.27;;;15.48;;
7495;SDS011;3789;47.064;15.482;2022-10-16T15:48:58;17.58;;;15.48;;
7495;SDS011;3789;47.064;15.482;2022-10-16T15:51:29;22.95;;;19.33;;
7495;SDS011;3789;47.064;15.482;2022-10-16T15:53:59;19.20;;;16.13;;
7495;SDS011;3789;47.064;15.482;2022-10-16T15:56:29;16.27;;;14.57;;
7495;SDS011;3789;47.064;15.482;2022-10-16T15:59:06;16.88;;;15.10;;
7495;SDS011;3789;47.064;15.482;2022-10-16T16:01:38;20.17;;;17.52;;
7495;SDS011;3789;47.064;15.482;2022-10-16T16:04:09;16.38;;;14.60;;
7495;SDS011;3789;47.064;15.482;2022-10-16T16:07:05;18.58;;;16.42;;
7495;SDS011;3789;47.064;15.482;2022-10-16T16:09:35;20.52;;;16.85;;
7495;SDS011;3789;47.064;15.482;2022-10-16T16:12:13;20.10;;;17.30;;
7495;SDS011;3789;47.064;15.482;2022-10-16T16:14:43;20.58;;;17.55;;
7495;SDS011;3789;47.064;15.482;2022-10-16T16:17:14;19.02;;;16.90;;
7495;SDS011;3789;47.064;15.482;2022-10-16T16:19:46;19.55;;;17.30;;
7495;SDS011;3789;47.064;15.482;2022-10-16T16:22:16;18.05;;;16.13;;
7495;SDS011;3789;47.064;15.482;2022-10-16T16:24:45;27.85;;;19.08;;
7495;SDS011;3789;47.064;15.482;2022-10-16T16:27:16;25.23;;;20.10;;
7495;SDS011;3789;47.064;15.482;2022-10-16T16:29:53;25.23;;;22.23;;
7495;SDS011;3789;47.064;15.482;2022-10-16T16:32:22;28.15;;;22.95;;
7495;SDS011;3789;47.064;15.482;2022-10-16T16:34:52;28.55;;;22.42;;
7495;SDS011;3789;47.064;15.482;2022-10-16T16:37:23;25.23;;;20.13;;
7495;SDS011;3789;47.064;15.482;2022-10-16T16:39:55;18.73;;;16.73;;
7495;SDS011;3789;47.064;15.482;2022-10-16T16:42:26;23.08;;;17.75;;
7495;SDS011;3789;47.064;15.482;2022-10-16T16:44:58;23.17;;;19.25;;
7495;SDS011;3789;47.064;15.482;2022-10-16T16:47:38;23.42;;;17.23;;
7495;SDS011;3789;47.064;15.482;2022-10-16T16:50:06;32.72;;;26.02;;
7495;SDS011;3789;47.064;15.482;2022-10-16T16:52:45;24.88;;;20.23;;
7495;SDS011;3789;47.064;15.482;2022-10-16T16:55:14;29.10;;;21.75;;
7495;SDS011;3789;47.064;15.482;2022-10-16T16:57:43;25.65;;;21.67;;
7495;SDS011;3789;47.064;15.482;2022-10-16T17:00:18;26.30;;;20.85;;
7495;SDS011;3789;47.064;15.482;2022-10-16T17:02:50;29.00;;;24.50;;
7495;SDS011;3789;47.064;15.482;2022-10-16T17:05:19;23.50;;;19.48;;
7495;SDS011;3789;47.064;15.482;2022-10-16T17:08:06;24.92;;;19.83;;
7495;SDS011;3789;47.064;15.482;2022-10-16T17:10:44;24.70;;;20.45;;
7495;SDS011;3789;47.064;15.482;2022-10-16T17:13:15;29.90;;;22.13;;
7495;SDS011;3789;47.064;15.482;2022-10-16T17:15:53;22.73;;;18.20;;
7495;SDS011;3789;47.064;15.482;2022-10-16T17:18:29;24.60;;;19.92;;
7495;SDS011;3789;47.064;15.482;2022-10-16T17:21:00;25.27;;;21.45;;